createdAt,value
2017-10-22T00:00:52.215Z,2.55
2017-10-22T00:03:19.860Z,2.72
2017-10-22T00:05:48.215Z,2.22
2017-10-22T00:08:15.868Z,2.22
2017-10-22T00:10:43.500Z,2.80
2017-10-22T00:13:11.079Z,2.22
2017-10-22T00:15:38.750Z,2.55
2017-10-22T00:18:06.339Z,2.75
2017-10-22T00:20:34.695Z,2.00
2017-10-22T00:23:02.305Z,2.50
2017-10-22T00:25:29.889Z,2.85
2017-10-22T00:27:57.495Z,2.50
2017-10-22T00:30:25.852Z,2.10
2017-10-22T00:32:53.496Z,2.67
2017-10-22T00:35:21.074Z,3.15
2017-10-22T00:37:48.662Z,2.03
2017-10-22T00:40:17.067Z,1.85
2017-10-22T00:42:44.635Z,1.70
2017-10-22T00:45:12.238Z,1.80
2017-10-22T00:47:39.847Z,1.60
2017-10-22T00:50:07.448Z,1.90
2017-10-22T00:52:35.040Z,1.80
2017-10-22T00:55:02.650Z,1.60
2017-10-22T00:57:31.066Z,1.77
2017-10-22T00:59:58.710Z,2.00
2017-10-22T01:02:26.283Z,1.70
2017-10-22T01:04:53.867Z,1.73
2017-10-22T01:07:22.273Z,2.28
2017-10-22T01:09:49.879Z,2.50
2017-10-22T01:12:17.500Z,2.15
2017-10-22T01:14:45.074Z,1.80
2017-10-22T01:17:12.683Z,1.70
2017-10-22T01:19:40.298Z,1.60
2017-10-22T01:22:07.913Z,2.95
2017-10-22T01:24:36.264Z,2.30
2017-10-22T01:27:03.903Z,2.03
2017-10-22T01:29:31.471Z,1.58
2017-10-22T01:31:59.224Z,2.72
2017-10-22T01:34:27.593Z,2.00
2017-10-22T01:36:55.189Z,2.05
2017-10-22T01:39:22.810Z,2.00
2017-10-22T01:41:50.431Z,1.55
2017-10-22T01:44:18.044Z,2.20
2017-10-22T01:46:45.700Z,1.67
2017-10-22T01:49:13.279Z,2.28
2017-10-22T01:51:40.900Z,2.12
2017-10-22T01:54:08.554Z,2.05
2017-10-22T01:56:36.192Z,2.65
2017-10-22T01:59:03.783Z,1.95
2017-10-22T02:01:32.185Z,1.95
2017-10-22T02:03:59.847Z,2.17
2017-10-22T02:06:27.459Z,1.95
2017-10-22T02:08:55.111Z,2.05
2017-10-22T02:11:22.719Z,2.67
2017-10-22T02:13:50.342Z,1.87
2017-10-22T02:16:17.991Z,2.08
2017-10-22T02:18:45.634Z,2.10
2017-10-22T02:21:13.249Z,1.60
2017-10-22T02:23:40.895Z,2.20
2017-10-22T02:26:08.559Z,1.48
2017-10-22T02:28:36.205Z,2.20
2017-10-22T02:31:03.814Z,2.60
2017-10-22T02:33:32.236Z,1.75
2017-10-22T02:35:59.870Z,2.30
2017-10-22T02:38:27.493Z,1.83
2017-10-22T02:40:55.059Z,2.30
2017-10-22T02:43:22.736Z,1.83
2017-10-22T02:45:50.343Z,1.98
2017-10-22T02:48:17.996Z,2.40
2017-10-22T02:50:45.653Z,2.62
2017-10-22T02:53:13.281Z,2.08
2017-10-22T02:55:41.622Z,2.15
2017-10-22T02:58:09.252Z,2.85
2017-10-22T03:00:36.853Z,2.37
2017-10-22T03:03:04.497Z,2.50
2017-10-22T03:05:32.064Z,1.95
2017-10-22T03:07:59.686Z,2.40
2017-10-22T03:10:27.313Z,2.30
2017-10-22T03:12:55.276Z,2.00
2017-10-22T03:15:22.862Z,2.17
2017-10-22T03:17:51.219Z,2.03
2017-10-22T03:20:18.853Z,1.75
2017-10-22T03:22:46.450Z,2.00
2017-10-22T03:25:14.079Z,1.70
2017-10-22T03:27:41.688Z,2.10
2017-10-22T03:30:10.068Z,2.12
2017-10-22T03:32:38.423Z,2.15
2017-10-22T03:35:06.018Z,2.35
2017-10-22T03:37:33.641Z,2.10
2017-10-22T03:40:01.247Z,2.12
2017-10-22T03:42:28.872Z,2.37
2017-10-22T03:44:56.459Z,2.33
2017-10-22T03:47:24.809Z,2.00
2017-10-22T03:49:52.426Z,1.87
2017-10-22T03:52:20.087Z,3.30
2017-10-22T03:54:47.669Z,1.95
2017-10-22T03:57:15.283Z,2.50
2017-10-22T03:59:42.910Z,2.12
2017-10-22T04:02:10.481Z,2.05
2017-10-22T04:04:38.893Z,2.87
2017-10-22T04:07:06.484Z,2.35
2017-10-22T04:09:34.111Z,2.40
2017-10-22T04:12:01.732Z,2.62
2017-10-22T04:14:30.149Z,2.83
2017-10-22T04:16:58.489Z,2.62
2017-10-22T04:19:26.972Z,1.80
2017-10-22T04:21:54.580Z,2.28
2017-10-22T04:24:22.216Z,2.22
2017-10-22T04:26:50.580Z,1.95
2017-10-22T04:29:18.224Z,2.75
2017-10-22T04:31:45.800Z,1.67
2017-10-22T04:34:13.397Z,1.80
2017-10-22T04:36:41.115Z,2.03
2017-10-22T04:39:08.691Z,2.12
2017-10-22T04:41:36.319Z,2.00
2017-10-22T04:44:03.896Z,2.50
2017-10-22T04:46:31.536Z,2.53
2017-10-22T04:48:59.115Z,3.15
2017-10-22T04:51:26.692Z,3.10
2017-10-22T04:53:54.307Z,2.08
2017-10-22T04:56:21.883Z,2.58
2017-10-22T04:58:49.471Z,2.65
2017-10-22T05:01:17.072Z,2.20
2017-10-22T05:03:45.403Z,2.35
2017-10-22T05:06:13.023Z,2.67
2017-10-22T05:08:40.615Z,2.60
2017-10-22T05:11:08.222Z,2.05
2017-10-22T05:13:36.621Z,2.80
2017-10-22T05:16:04.184Z,3.17
2017-10-22T05:18:31.760Z,2.70
2017-10-22T05:20:59.375Z,2.20
2017-10-22T05:23:26.957Z,2.12
2017-10-22T05:25:55.334Z,1.87
2017-10-22T05:28:22.942Z,1.90
2017-10-22T05:30:50.577Z,2.70
2017-10-22T05:33:18.166Z,2.50
2017-10-22T05:35:45.749Z,2.28
2017-10-22T05:38:13.352Z,2.20
2017-10-22T05:40:40.947Z,2.33
2017-10-22T05:43:08.568Z,2.37
2017-10-22T05:45:36.907Z,2.62
2017-10-22T05:48:04.473Z,2.70
2017-10-22T05:50:32.084Z,3.35
2017-10-22T05:52:59.665Z,2.80
2017-10-22T05:55:27.299Z,3.33
2017-10-22T05:57:54.885Z,2.97
2017-10-22T06:00:22.494Z,2.80
2017-10-22T06:02:50.852Z,4.90
2017-10-22T06:05:18.464Z,10.38
2017-10-22T06:07:46.039Z,18.15
2017-10-22T06:10:13.658Z,15.40
2017-10-22T06:12:42.008Z,8.50
2017-10-22T06:15:09.641Z,4.95
2017-10-22T06:17:41.949Z,4.07
2017-10-22T06:20:09.567Z,2.67
2017-10-22T06:22:37.176Z,3.42
2017-10-22T06:25:04.763Z,3.10
2017-10-22T06:27:32.394Z,2.42
2017-10-22T06:29:59.997Z,2.42
2017-10-22T06:32:27.606Z,2.25
2017-10-22T06:34:55.203Z,2.28
2017-10-22T06:37:23.611Z,2.50
2017-10-22T06:39:51.204Z,2.87
2017-10-22T06:42:18.789Z,2.50
2017-10-22T06:44:46.415Z,2.28
2017-10-22T06:47:13.988Z,3.20
2017-10-22T06:49:41.576Z,2.30
2017-10-22T06:52:09.190Z,2.35
2017-10-22T06:54:36.791Z,3.65
2017-10-22T06:57:04.427Z,2.33
2017-10-22T06:59:32.052Z,2.47
2017-10-22T07:01:59.682Z,2.70
2017-10-22T07:04:27.283Z,2.25
2017-10-22T07:06:54.895Z,2.45
2017-10-22T07:09:22.508Z,2.20
2017-10-22T07:11:50.087Z,2.80
2017-10-22T07:14:17.708Z,2.30
2017-10-22T07:16:46.080Z,2.50
2017-10-22T07:19:14.427Z,3.70
2017-10-22T07:21:41.995Z,2.47
2017-10-22T07:24:09.636Z,2.42
2017-10-22T07:26:37.212Z,3.03
2017-10-22T07:29:04.792Z,2.78
2017-10-22T07:31:32.427Z,2.20
2017-10-22T07:34:00.036Z,3.00
2017-10-22T07:36:27.672Z,2.08
2017-10-22T07:38:55.251Z,2.30
2017-10-22T07:41:23.647Z,2.58
2017-10-22T07:43:52.009Z,2.17
2017-10-22T07:46:20.359Z,3.33
2017-10-22T07:48:47.980Z,2.78
2017-10-22T07:51:15.602Z,2.50
2017-10-22T07:53:43.166Z,2.20
2017-10-22T07:56:11.567Z,3.37
2017-10-22T07:58:39.158Z,2.30
2017-10-22T08:01:06.733Z,3.55
2017-10-22T08:03:34.407Z,2.70
2017-10-22T08:06:01.996Z,2.90
2017-10-22T08:08:29.575Z,2.72
2017-10-22T08:10:57.195Z,2.60
2017-10-22T08:13:24.797Z,2.65
2017-10-22T08:15:52.407Z,2.58
2017-10-22T08:18:20.015Z,2.87
2017-10-22T08:20:47.620Z,3.42
2017-10-22T08:23:15.199Z,2.40
2017-10-22T08:25:43.495Z,1.77
2017-10-22T08:28:11.857Z,2.72
2017-10-22T08:30:39.465Z,3.25
2017-10-22T08:33:07.099Z,2.53
2017-10-22T08:35:35.459Z,3.70
2017-10-22T08:38:03.067Z,2.22
2017-10-22T08:40:30.685Z,2.95
2017-10-22T08:42:58.308Z,2.80
2017-10-22T08:45:25.928Z,2.90
2017-10-22T08:47:54.292Z,2.28
2017-10-22T08:50:21.920Z,1.83
2017-10-22T08:52:49.592Z,3.80
2017-10-22T08:55:17.240Z,2.55
2017-10-22T08:57:44.830Z,3.85
2017-10-22T09:00:12.427Z,1.98
2017-10-22T09:02:40.059Z,2.20
2017-10-22T09:05:07.707Z,1.80
2017-10-22T09:07:35.333Z,7.68
2017-10-22T09:10:02.943Z,3.92
2017-10-22T09:12:30.583Z,6.22
2017-10-22T09:14:58.207Z,6.62
2017-10-22T09:17:25.837Z,4.70
2017-10-22T09:19:54.239Z,3.58
2017-10-22T09:22:21.819Z,2.20
2017-10-22T09:24:49.423Z,2.70
2017-10-22T09:27:17.039Z,2.00
2017-10-22T09:29:44.622Z,2.97
2017-10-22T09:32:12.231Z,2.28
2017-10-22T09:34:40.587Z,2.62
2017-10-22T09:37:08.182Z,2.80
2017-10-22T09:39:36.564Z,2.85
2017-10-22T09:42:04.254Z,2.30
2017-10-22T09:44:32.591Z,3.20
2017-10-22T09:47:00.267Z,2.70
2017-10-22T09:49:27.918Z,2.15
2017-10-22T09:51:56.263Z,2.50
2017-10-22T09:54:23.905Z,2.55
2017-10-22T09:56:51.524Z,3.10
2017-10-22T09:59:19.924Z,2.20
2017-10-22T10:01:47.516Z,2.70
2017-10-22T10:04:15.092Z,2.37
2017-10-22T10:06:42.735Z,3.15
2017-10-22T10:09:10.332Z,2.50
2017-10-22T10:11:37.911Z,2.90
2017-10-22T10:14:06.297Z,2.20
2017-10-22T10:16:33.954Z,4.15
2017-10-22T10:19:02.363Z,2.28
2017-10-22T10:21:29.978Z,2.17
2017-10-22T10:23:57.592Z,2.20
2017-10-22T10:26:25.158Z,3.37
2017-10-22T10:28:52.787Z,2.72
2017-10-22T10:31:20.346Z,2.35
2017-10-22T10:33:47.928Z,2.33
2017-10-22T10:36:15.559Z,3.28
2017-10-22T10:38:43.980Z,2.75
2017-10-22T10:41:11.618Z,2.60
2017-10-22T10:43:39.211Z,2.53
2017-10-22T10:46:06.820Z,2.83
2017-10-22T10:48:35.151Z,2.97
2017-10-22T10:51:02.760Z,2.20
2017-10-22T10:53:31.124Z,2.55
2017-10-22T10:55:58.700Z,3.15
2017-10-22T10:58:27.159Z,2.10
2017-10-22T11:00:54.748Z,3.90
2017-10-22T11:03:23.134Z,2.15
2017-10-22T11:05:50.737Z,2.70
2017-10-22T11:08:18.378Z,2.47
2017-10-22T11:10:46.107Z,3.00
2017-10-22T11:13:13.721Z,2.08
2017-10-22T11:15:41.348Z,2.75
2017-10-22T11:18:08.923Z,3.67
2017-10-22T11:20:36.516Z,4.20
2017-10-22T11:23:04.115Z,2.58
2017-10-22T11:25:32.487Z,2.65
2017-10-22T11:28:00.060Z,3.05
2017-10-22T11:30:28.435Z,2.00
2017-10-22T11:32:56.825Z,2.45
2017-10-22T11:35:24.402Z,2.15
2017-10-22T11:37:52.010Z,3.20
2017-10-22T11:40:19.578Z,2.70
2017-10-22T11:42:47.135Z,2.80
2017-10-22T11:45:14.747Z,2.50
2017-10-22T11:47:42.314Z,3.13
2017-10-22T11:50:09.929Z,2.13
2017-10-22T11:52:37.484Z,3.10
2017-10-22T11:55:05.084Z,2.93
2017-10-22T11:57:32.686Z,2.30
2017-10-22T12:00:00.312Z,2.50
2017-10-22T12:02:27.943Z,2.83
2017-10-22T12:04:56.275Z,2.80
2017-10-22T12:07:23.899Z,2.43
2017-10-22T12:09:51.475Z,2.00
2017-10-22T12:12:19.076Z,1.87
2017-10-22T12:14:46.645Z,2.27
2017-10-22T12:17:14.267Z,2.60
2017-10-22T12:19:41.855Z,2.60
2017-10-22T12:22:09.423Z,1.73
2017-10-22T12:24:37.059Z,2.00
2017-10-22T12:27:04.649Z,2.43
2017-10-22T12:29:32.235Z,2.03
2017-10-22T12:32:00.634Z,2.23
2017-10-22T12:34:28.215Z,2.25
2017-10-22T12:36:55.801Z,2.20
2017-10-22T12:39:23.407Z,3.05
2017-10-22T12:41:51.088Z,2.37
2017-10-22T12:44:18.669Z,1.90
2017-10-22T12:46:46.286Z,2.10
2017-10-22T12:49:14.665Z,1.80
2017-10-22T12:51:43.005Z,2.05
2017-10-22T12:54:10.644Z,2.97
2017-10-22T12:56:38.221Z,2.40
2017-10-22T12:59:05.852Z,2.10
2017-10-22T13:01:33.467Z,2.75
2017-10-22T13:04:02.024Z,2.42
2017-10-22T13:06:29.615Z,1.90
2017-10-22T13:08:57.219Z,2.40
2017-10-22T13:11:24.783Z,2.80
2017-10-22T13:13:52.410Z,2.62
2017-10-22T13:16:20.003Z,3.28
2017-10-22T13:18:47.580Z,2.55
2017-10-22T13:21:15.207Z,2.60
2017-10-22T13:23:43.591Z,2.03
2017-10-22T13:26:11.162Z,2.60
2017-10-22T13:28:38.755Z,1.90
2017-10-22T13:31:06.381Z,2.30
2017-10-22T13:33:34.100Z,3.45
2017-10-22T13:36:01.835Z,2.10
2017-10-22T13:38:29.431Z,2.10
2017-10-22T13:40:57.784Z,1.98
2017-10-22T13:43:25.462Z,2.00
2017-10-22T13:45:53.053Z,2.05
2017-10-22T13:50:55.302Z,2.10
2017-10-22T13:53:22.879Z,2.17
2017-10-22T13:55:50.496Z,1.42
2017-10-22T13:58:18.077Z,1.40
2017-10-22T14:00:45.683Z,2.00
2017-10-22T14:03:14.061Z,2.00
2017-10-22T14:05:42.444Z,1.52
2017-10-22T14:08:10.850Z,1.75
2017-10-22T14:10:38.442Z,1.98
2017-10-22T14:13:06.006Z,2.00
2017-10-22T14:15:33.595Z,2.10
2017-10-22T14:18:01.205Z,2.08
2017-10-22T14:20:28.812Z,1.50
2017-10-22T14:22:56.370Z,1.67
2017-10-22T14:25:23.946Z,1.95
2017-10-22T14:27:52.319Z,1.67
2017-10-22T14:30:20.672Z,1.73
2017-10-22T14:32:48.278Z,2.10
2017-10-22T14:35:15.850Z,1.70
2017-10-22T14:37:44.218Z,1.33
2017-10-22T14:40:12.555Z,2.05
2017-10-22T14:42:40.168Z,1.60
2017-10-22T14:45:07.755Z,1.67
2017-10-22T14:47:35.368Z,1.50
2017-10-22T14:50:03.738Z,1.33
2017-10-22T14:52:31.319Z,1.60
2017-10-22T14:54:59.699Z,2.95
2017-10-22T14:57:28.033Z,2.22
2017-10-22T14:59:55.718Z,1.70
2017-10-22T15:02:24.120Z,1.95
2017-10-22T15:04:51.700Z,1.90
2017-10-22T15:07:19.310Z,1.60
2017-10-22T15:09:46.891Z,2.05
2017-10-22T15:12:15.297Z,1.30
2017-10-22T15:14:42.915Z,1.95
2017-10-22T15:17:10.492Z,1.70
2017-10-22T15:19:38.876Z,1.95
2017-10-22T15:22:07.277Z,2.47
2017-10-22T15:24:34.868Z,1.60
2017-10-22T15:27:02.485Z,2.28
2017-10-22T15:29:30.857Z,1.50
2017-10-22T15:31:59.239Z,1.80
2017-10-22T15:34:27.643Z,2.10
2017-10-22T15:36:55.233Z,1.37
2017-10-22T15:39:22.824Z,1.50
2017-10-22T15:41:50.455Z,1.90
2017-10-22T15:44:18.022Z,2.40
2017-10-22T15:46:45.607Z,1.70
2017-10-22T15:49:13.233Z,2.30
2017-10-22T15:51:40.802Z,2.15
2017-10-22T15:54:08.368Z,1.90
2017-10-22T15:56:36.016Z,2.20
2017-10-22T15:59:03.582Z,2.60
2017-10-22T16:01:31.179Z,2.62
2017-10-22T16:03:59.563Z,2.28
2017-10-22T16:06:29.270Z,5.40
2017-10-22T16:08:59.700Z,2.75
2017-10-22T16:11:30.254Z,2.10
2017-10-22T16:14:00.124Z,2.40
2017-10-22T16:16:29.778Z,2.58
2017-10-22T16:18:59.642Z,2.53
2017-10-22T16:21:29.411Z,2.62
2017-10-22T16:23:57.235Z,4.35
2017-10-22T16:26:25.594Z,2.90
2017-10-22T16:28:53.180Z,3.72
2017-10-22T16:31:21.580Z,4.65
2017-10-22T16:33:49.175Z,3.80
2017-10-22T16:36:16.792Z,4.57
2017-10-22T16:38:45.182Z,3.78
2017-10-22T16:41:12.780Z,4.22
2017-10-22T16:43:40.443Z,3.15
2017-10-22T16:46:08.074Z,3.40
2017-10-22T16:48:35.648Z,3.47
2017-10-22T16:51:03.214Z,3.80
2017-10-22T16:53:30.847Z,5.22
2017-10-22T16:55:59.183Z,3.92
2017-10-22T16:58:26.765Z,4.93
2017-10-22T17:00:54.380Z,3.50
2017-10-22T17:03:22.717Z,3.80
2017-10-22T17:05:51.075Z,3.62
2017-10-22T17:08:18.708Z,4.00
2017-10-22T17:10:46.291Z,3.75
2017-10-22T17:13:13.884Z,4.37
2017-10-22T17:15:41.503Z,4.70
2017-10-22T17:18:09.080Z,3.22
2017-10-22T17:20:36.688Z,4.03
2017-10-22T17:23:04.315Z,3.70
2017-10-22T17:25:31.888Z,2.67
2017-10-22T17:27:59.520Z,3.25
2017-10-22T17:30:27.095Z,3.30
2017-10-22T17:32:54.718Z,2.90
2017-10-22T17:35:22.350Z,3.62
2017-10-22T17:37:49.967Z,3.05
2017-10-22T17:40:17.539Z,3.03
2017-10-22T17:42:45.940Z,3.85
2017-10-22T17:45:14.294Z,3.05
2017-10-22T17:47:41.883Z,3.62
2017-10-22T17:50:10.259Z,3.67
2017-10-22T17:52:37.884Z,2.92
2017-10-22T17:55:05.509Z,3.17
2017-10-22T17:57:33.103Z,3.10
2017-10-22T18:00:00.727Z,3.45
2017-10-22T18:02:28.308Z,2.80
2017-10-22T18:04:55.882Z,3.97
2017-10-22T18:07:23.500Z,3.58
2017-10-22T18:09:51.086Z,3.30
2017-10-22T18:12:18.703Z,2.80
2017-10-22T18:14:47.033Z,3.08
2017-10-22T18:17:14.684Z,3.03
2017-10-22T18:19:42.270Z,3.20
2017-10-22T18:22:09.878Z,3.10
2017-10-22T18:24:37.511Z,3.50
2017-10-22T18:27:05.078Z,3.60
2017-10-22T18:29:33.467Z,3.50
2017-10-22T18:32:01.811Z,2.97
2017-10-22T18:34:29.377Z,3.22
2017-10-22T18:36:56.983Z,3.55
2017-10-22T18:39:24.569Z,4.12
2017-10-22T18:41:52.181Z,3.50
2017-10-22T18:44:19.769Z,3.85
2017-10-22T18:46:47.382Z,3.70
2017-10-22T18:49:14.960Z,4.07
2017-10-22T18:51:42.584Z,4.45
2017-10-22T18:54:10.159Z,2.85
2017-10-22T18:56:37.752Z,2.90
2017-10-22T18:59:06.129Z,3.37
2017-10-22T19:01:34.462Z,3.70
2017-10-22T19:04:02.040Z,3.92
2017-10-22T19:06:29.685Z,3.95
2017-10-22T19:08:57.683Z,5.75
2017-10-22T19:11:25.265Z,3.60
2017-10-22T19:13:53.615Z,3.12
2017-10-22T19:16:21.245Z,3.75
2017-10-22T19:18:48.819Z,3.75
2017-10-22T19:21:16.437Z,3.35
2017-10-22T19:23:44.833Z,3.62
2017-10-22T19:26:12.428Z,3.58
2017-10-22T19:28:40.053Z,2.95
2017-10-22T19:31:07.639Z,4.40
2017-10-22T19:33:35.966Z,3.87
2017-10-22T19:36:04.373Z,4.10
2017-10-22T19:38:31.953Z,3.42
2017-10-22T19:40:59.572Z,3.12
2017-10-22T19:43:27.923Z,2.67
2017-10-22T19:45:55.539Z,3.65
2017-10-22T19:48:23.179Z,3.78
2017-10-22T19:50:50.769Z,3.17
2017-10-22T19:53:18.352Z,2.42
2017-10-22T19:55:46.008Z,4.12
2017-10-22T19:58:13.631Z,3.35
2017-10-22T20:00:41.289Z,2.78
2017-10-22T20:03:12.660Z,3.40
2017-10-22T20:05:40.231Z,2.37
2017-10-22T20:08:07.842Z,2.55
2017-10-22T20:10:35.415Z,2.60
2017-10-22T20:13:03.824Z,3.33
2017-10-22T20:15:31.405Z,3.15
2017-10-22T20:17:59.043Z,2.85
2017-10-22T20:20:26.613Z,3.62
2017-10-22T20:22:54.230Z,2.33
2017-10-22T20:25:22.593Z,2.53
2017-10-22T20:27:50.205Z,2.83
2017-10-22T20:30:17.795Z,2.62
2017-10-22T20:32:45.412Z,2.35
2017-10-22T20:35:13.745Z,3.55
2017-10-22T20:37:41.321Z,3.55
2017-10-22T20:40:08.944Z,2.83
2017-10-22T20:42:36.515Z,3.00
2017-10-22T20:45:04.123Z,2.60
2017-10-22T20:47:32.490Z,2.75
2017-10-22T20:50:00.101Z,2.72
2017-10-22T20:52:27.683Z,4.47
2017-10-22T20:54:55.256Z,3.17
2017-10-22T20:57:22.880Z,3.28
2017-10-22T20:59:50.456Z,3.25
2017-10-22T21:02:18.862Z,2.92
2017-10-22T21:04:46.429Z,3.22
2017-10-22T21:07:14.005Z,3.00
2017-10-22T21:09:42.402Z,2.60
2017-10-22T21:12:09.975Z,3.17
2017-10-22T21:14:37.547Z,3.47
2017-10-22T21:17:05.140Z,2.35
2017-10-22T21:19:32.762Z,3.70
2017-10-22T21:22:00.333Z,2.45
2017-10-22T21:24:28.136Z,2.42
2017-10-22T21:26:55.703Z,3.55
2017-10-22T21:29:23.329Z,3.20
2017-10-22T21:31:50.923Z,2.70
2017-10-22T21:34:18.503Z,2.65
2017-10-22T21:36:46.886Z,3.08
2017-10-22T21:39:15.271Z,2.90
2017-10-22T21:41:43.665Z,2.45
2017-10-22T21:44:11.247Z,2.83
2017-10-22T21:46:38.858Z,3.20
2017-10-22T21:49:07.224Z,2.25
2017-10-22T21:51:34.845Z,2.30
2017-10-22T21:54:02.435Z,2.50
2017-10-22T21:56:30.003Z,2.72
2017-10-22T21:58:57.621Z,2.20
2017-10-22T22:01:25.190Z,2.30
2017-10-22T22:03:52.827Z,3.30
2017-10-22T22:06:20.407Z,3.40
2017-10-22T22:08:47.979Z,2.28
2017-10-22T22:11:15.603Z,2.15
2017-10-22T22:13:43.198Z,2.97
2017-10-22T22:16:10.796Z,2.40
2017-10-22T22:18:38.426Z,2.28
2017-10-22T22:21:06.003Z,1.98
2017-10-22T22:23:33.626Z,2.22
2017-10-22T22:26:01.195Z,2.22
2017-10-22T22:28:28.839Z,1.83
2017-10-22T22:30:56.402Z,1.55
2017-10-22T22:33:23.963Z,2.45
2017-10-22T22:35:51.584Z,2.85
2017-10-22T22:38:19.204Z,2.15
2017-10-22T22:40:46.779Z,2.22
2017-10-22T22:43:14.389Z,3.10
2017-10-22T22:45:42.751Z,2.95
2017-10-22T22:48:11.145Z,2.70
2017-10-22T22:50:39.481Z,2.30
2017-10-22T22:53:07.095Z,3.05
2017-10-22T22:55:34.670Z,2.30
2017-10-22T22:58:02.271Z,2.47
2017-10-22T23:00:29.878Z,2.95
2017-10-22T23:02:57.463Z,2.47
2017-10-22T23:05:25.061Z,2.70
2017-10-22T23:07:52.638Z,2.40
2017-10-22T23:10:20.238Z,2.58
2017-10-22T23:12:48.605Z,3.47
2017-10-22T23:15:16.211Z,3.05
2017-10-22T23:17:43.799Z,2.35
2017-10-22T23:20:11.411Z,2.70
2017-10-22T23:22:38.980Z,2.97
2017-10-22T23:25:06.582Z,3.37
2017-10-22T23:27:34.190Z,3.05
2017-10-22T23:30:01.819Z,3.15
2017-10-22T23:32:30.162Z,2.72
2017-10-22T23:34:57.741Z,3.10
2017-10-22T23:37:25.351Z,2.72
2017-10-22T23:39:52.973Z,2.50
2017-10-22T23:42:21.351Z,2.97
2017-10-22T23:44:49.686Z,3.00
2017-10-22T23:47:17.316Z,3.47
2017-10-22T23:49:44.955Z,3.55
2017-10-22T23:52:12.551Z,2.75
2017-10-22T23:54:40.129Z,2.42
2017-10-22T23:57:07.719Z,2.25
2017-10-22T23:59:35.331Z,2.37
